sensor_id;sensor_type;location;lat;lon;timestamp;temperature;humidity
15288;DHT22;7745;48.708;9.026;2022-07-29T00:01:26;20.30;99.90
15288;DHT22;7745;48.708;9.026;2022-07-29T00:03:53;20.20;99.90
15288;DHT22;7745;48.708;9.026;2022-07-29T00:06:21;20.20;99.90
15288;DHT22;7745;48.708;9.026;2022-07-29T00:08:48;20.10;99.90
15288;DHT22;7745;48.708;9.026;2022-07-29T00:11:15;20.10;99.90
15288;DHT22;7745;48.708;9.026;2022-07-29T00:13:42;20.10;99.90
15288;DHT22;7745;48.708;9.026;2022-07-29T00:16:09;20.10;99.90
15288;DHT22;7745;48.708;9.026;2022-07-29T00:18:35;20.00;99.90
15288;DHT22;7745;48.708;9.026;2022-07-29T00:21:02;20.00;99.90
15288;DHT22;7745;48.708;9.026;2022-07-29T00:23:31;19.90;99.90
15288;DHT22;7745;48.708;9.026;2022-07-29T00:25:58;19.90;99.90
15288;DHT22;7745;48.708;9.026;2022-07-29T00:28:24;19.80;99.90
15288;DHT22;7745;48.708;9.026;2022-07-29T00:30:51;19.90;99.90
15288;DHT22;7745;48.708;9.026;2022-07-29T00:33:18;19.80;99.90
15288;DHT22;7745;48.708;9.026;2022-07-29T00:35:45;19.80;99.90
15288;DHT22;7745;48.708;9.026;2022-07-29T00:38:12;19.80;99.90
15288;DHT22;7745;48.708;9.026;2022-07-29T00:40:40;19.80;99.90
15288;DHT22;7745;48.708;9.026;2022-07-29T00:43:08;19.80;99.90
15288;DHT22;7745;48.708;9.026;2022-07-29T00:45:35;19.80;99.90
15288;DHT22;7745;48.708;9.026;2022-07-29T00:48:02;19.80;99.90
15288;DHT22;7745;48.708;9.026;2022-07-29T00:50:31;19.70;99.90
15288;DHT22;7745;48.708;9.026;2022-07-29T00:53:00;19.70;99.90
15288;DHT22;7745;48.708;9.026;2022-07-29T00:55:27;19.70;99.90
15288;DHT22;7745;48.708;9.026;2022-07-29T00:57:57;19.70;99.90
15288;DHT22;7745;48.708;9.026;2022-07-29T01:00:26;19.60;99.90
15288;DHT22;7745;48.708;9.026;2022-07-29T01:02:54;19.60;99.90
15288;DHT22;7745;48.708;9.026;2022-07-29T01:05:22;19.60;99.90
15288;DHT22;7745;48.708;9.026;2022-07-29T01:07:53;19.60;99.90
15288;DHT22;7745;48.708;9.026;2022-07-29T01:10:20;19.60;99.90
15288;DHT22;7745;48.708;9.026;2022-07-29T01:12:50;19.50;99.90
15288;DHT22;7745;48.708;9.026;2022-07-29T01:15:19;19.60;99.90
15288;DHT22;7745;48.708;9.026;2022-07-29T01:17:52;19.60;99.90
15288;DHT22;7745;48.708;9.026;2022-07-29T01:20:41;19.50;99.90
15288;DHT22;7745;48.708;9.026;2022-07-29T01:26:31;19.50;99.90
15288;DHT22;7745;48.708;9.026;2022-07-29T01:29:06;19.50;99.90
15288;DHT22;7745;48.708;9.026;2022-07-29T01:31:42;19.50;99.90
15288;DHT22;7745;48.708;9.026;2022-07-29T01:34:12;19.40;99.90
15288;DHT22;7745;48.708;9.026;2022-07-29T01:36:45;19.50;99.90
15288;DHT22;7745;48.708;9.026;2022-07-29T01:39:18;19.40;99.90
15288;DHT22;7745;48.708;9.026;2022-07-29T01:41:50;19.40;99.90
15288;DHT22;7745;48.708;9.026;2022-07-29T01:44:23;19.40;99.90
15288;DHT22;7745;48.708;9.026;2022-07-29T01:46:56;19.30;99.90
15288;DHT22;7745;48.708;9.026;2022-07-29T01:49:28;19.30;99.90
15288;DHT22;7745;48.708;9.026;2022-07-29T01:51:58;19.30;99.90
15288;DHT22;7745;48.708;9.026;2022-07-29T01:54:34;19.30;99.90
15288;DHT22;7745;48.708;9.026;2022-07-29T01:57:03;19.30;99.90
15288;DHT22;7745;48.708;9.026;2022-07-29T01:59:34;19.30;99.90
15288;DHT22;7745;48.708;9.026;2022-07-29T02:02:01;19.30;99.90
15288;DHT22;7745;48.708;9.026;2022-07-29T02:04:29;19.20;99.90
15288;DHT22;7745;48.708;9.026;2022-07-29T02:07:01;19.10;99.90
15288;DHT22;7745;48.708;9.026;2022-07-29T02:09:29;19.00;99.90
15288;DHT22;7745;48.708;9.026;2022-07-29T02:11:57;19.00;99.90
15288;DHT22;7745;48.708;9.026;2022-07-29T02:14:29;19.00;99.90
15288;DHT22;7745;48.708;9.026;2022-07-29T02:16:58;19.00;99.90
15288;DHT22;7745;48.708;9.026;2022-07-29T02:19:27;19.10;99.90
15288;DHT22;7745;48.708;9.026;2022-07-29T02:21:56;19.10;99.90
15288;DHT22;7745;48.708;9.026;2022-07-29T02:24:24;19.10;99.90
15288;DHT22;7745;48.708;9.026;2022-07-29T02:26:53;19.10;99.90
15288;DHT22;7745;48.708;9.026;2022-07-29T02:29:23;19.10;99.90
15288;DHT22;7745;48.708;9.026;2022-07-29T02:31:52;19.10;99.90
15288;DHT22;7745;48.708;9.026;2022-07-29T02:34:21;19.10;99.90
15288;DHT22;7745;48.708;9.026;2022-07-29T02:36:49;19.10;99.90
15288;DHT22;7745;48.708;9.026;2022-07-29T02:39:17;19.10;99.90
15288;DHT22;7745;48.708;9.026;2022-07-29T02:41:46;19.10;99.90
15288;DHT22;7745;48.708;9.026;2022-07-29T02:44:15;19.10;99.90
15288;DHT22;7745;48.708;9.026;2022-07-29T02:46:48;19.10;99.90
15288;DHT22;7745;48.708;9.026;2022-07-29T02:49:21;19.10;99.90
15288;DHT22;7745;48.708;9.026;2022-07-29T02:51:53;19.10;99.90
15288;DHT22;7745;48.708;9.026;2022-07-29T02:54:29;19.00;99.90
15288;DHT22;7745;48.708;9.026;2022-07-29T02:56:59;19.00;99.90
15288;DHT22;7745;48.708;9.026;2022-07-29T02:59:27;19.10;99.90
15288;DHT22;7745;48.708;9.026;2022-07-29T03:01:58;19.00;99.90
15288;DHT22;7745;48.708;9.026;2022-07-29T03:04:27;18.90;99.90
15288;DHT22;7745;48.708;9.026;2022-07-29T03:06:58;18.90;99.90
15288;DHT22;7745;48.708;9.026;2022-07-29T03:09:26;18.90;99.90
15288;DHT22;7745;48.708;9.026;2022-07-29T03:11:55;18.80;99.90
15288;DHT22;7745;48.708;9.026;2022-07-29T03:14:23;18.80;99.90
15288;DHT22;7745;48.708;9.026;2022-07-29T03:16:51;18.80;99.90
15288;DHT22;7745;48.708;9.026;2022-07-29T03:19:19;18.80;99.90
15288;DHT22;7745;48.708;9.026;2022-07-29T03:21:46;18.80;99.90
15288;DHT22;7745;48.708;9.026;2022-07-29T03:24:29;18.70;99.90
15288;DHT22;7745;48.708;9.026;2022-07-29T03:26:56;18.70;99.90
15288;DHT22;7745;48.708;9.026;2022-07-29T03:29:24;18.70;99.90
15288;DHT22;7745;48.708;9.026;2022-07-29T03:31:51;18.70;99.90
15288;DHT22;7745;48.708;9.026;2022-07-29T03:34:18;18.60;99.90
15288;DHT22;7745;48.708;9.026;2022-07-29T03:36:45;18.60;99.90
15288;DHT22;7745;48.708;9.026;2022-07-29T03:39:14;18.70;99.90
15288;DHT22;7745;48.708;9.026;2022-07-29T03:41:45;18.50;99.90
15288;DHT22;7745;48.708;9.026;2022-07-29T03:44:13;18.60;99.90
15288;DHT22;7745;48.708;9.026;2022-07-29T03:46:42;18.60;99.90
15288;DHT22;7745;48.708;9.026;2022-07-29T03:49:11;18.50;99.90
15288;DHT22;7745;48.708;9.026;2022-07-29T03:51:40;18.50;99.90
15288;DHT22;7745;48.708;9.026;2022-07-29T03:54:07;18.50;99.90
15288;DHT22;7745;48.708;9.026;2022-07-29T03:56:37;18.50;99.90
15288;DHT22;7745;48.708;9.026;2022-07-29T03:59:07;18.50;99.90
15288;DHT22;7745;48.708;9.026;2022-07-29T04:01:34;18.50;99.90
15288;DHT22;7745;48.708;9.026;2022-07-29T04:04:01;18.50;99.90
15288;DHT22;7745;48.708;9.026;2022-07-29T04:06:30;18.50;99.90
15288;DHT22;7745;48.708;9.026;2022-07-29T04:09:03;18.60;99.90
15288;DHT22;7745;48.708;9.026;2022-07-29T04:11:30;18.50;99.90
15288;DHT22;7745;48.708;9.026;2022-07-29T04:13:57;18.50;99.90
15288;DHT22;7745;48.708;9.026;2022-07-29T04:16:25;18.50;99.90
15288;DHT22;7745;48.708;9.026;2022-07-29T04:18:52;18.50;99.90
15288;DHT22;7745;48.708;9.026;2022-07-29T04:21:19;18.50;99.90
15288;DHT22;7745;48.708;9.026;2022-07-29T04:23:47;18.50;99.90
15288;DHT22;7745;48.708;9.026;2022-07-29T04:26:15;18.50;99.90
15288;DHT22;7745;48.708;9.026;2022-07-29T04:28:43;18.50;99.90
15288;DHT22;7745;48.708;9.026;2022-07-29T04:31:10;18.50;99.90
15288;DHT22;7745;48.708;9.026;2022-07-29T04:33:38;18.50;99.90
15288;DHT22;7745;48.708;9.026;2022-07-29T04:36:13;18.50;99.90
15288;DHT22;7745;48.708;9.026;2022-07-29T04:38:40;18.50;99.90
15288;DHT22;7745;48.708;9.026;2022-07-29T04:41:06;18.40;99.90
15288;DHT22;7745;48.708;9.026;2022-07-29T04:43:34;18.40;99.90
15288;DHT22;7745;48.708;9.026;2022-07-29T04:46:03;18.50;99.90
15288;DHT22;7745;48.708;9.026;2022-07-29T04:48:30;18.50;99.90
15288;DHT22;7745;48.708;9.026;2022-07-29T04:50:58;18.60;99.90
15288;DHT22;7745;48.708;9.026;2022-07-29T04:53:25;18.60;99.90
15288;DHT22;7745;48.708;9.026;2022-07-29T04:55:52;18.60;99.90
15288;DHT22;7745;48.708;9.026;2022-07-29T04:58:19;18.60;99.90
15288;DHT22;7745;48.708;9.026;2022-07-29T05:00:48;18.60;99.90
15288;DHT22;7745;48.708;9.026;2022-07-29T05:03:15;18.70;99.90
15288;DHT22;7745;48.708;9.026;2022-07-29T05:05:42;18.80;99.90
15288;DHT22;7745;48.708;9.026;2022-07-29T05:08:10;19.00;99.90
15288;DHT22;7745;48.708;9.026;2022-07-29T05:10:37;19.00;99.90
15288;DHT22;7745;48.708;9.026;2022-07-29T05:13:04;19.10;99.90
15288;DHT22;7745;48.708;9.026;2022-07-29T05:15:32;19.30;99.90
15288;DHT22;7745;48.708;9.026;2022-07-29T05:17:59;19.40;99.90
15288;DHT22;7745;48.708;9.026;2022-07-29T05:20:26;19.40;99.90
15288;DHT22;7745;48.708;9.026;2022-07-29T05:22:54;19.60;99.90
15288;DHT22;7745;48.708;9.026;2022-07-29T05:25:22;19.60;99.90
15288;DHT22;7745;48.708;9.026;2022-07-29T05:27:49;19.60;99.90
15288;DHT22;7745;48.708;9.026;2022-07-29T05:30:16;19.70;99.90
15288;DHT22;7745;48.708;9.026;2022-07-29T05:32:42;19.80;99.90
15288;DHT22;7745;48.708;9.026;2022-07-29T05:35:10;20.00;99.90
15288;DHT22;7745;48.708;9.026;2022-07-29T05:37:37;20.10;99.90
15288;DHT22;7745;48.708;9.026;2022-07-29T05:40:05;20.20;99.90
15288;DHT22;7745;48.708;9.026;2022-07-29T05:42:34;20.30;99.90
15288;DHT22;7745;48.708;9.026;2022-07-29T05:45:01;20.30;99.90
15288;DHT22;7745;48.708;9.026;2022-07-29T05:47:28;20.30;99.90
15288;DHT22;7745;48.708;9.026;2022-07-29T05:49:56;20.40;99.90
15288;DHT22;7745;48.708;9.026;2022-07-29T05:52:23;20.50;99.90
15288;DHT22;7745;48.708;9.026;2022-07-29T05:54:50;20.50;99.90
15288;DHT22;7745;48.708;9.026;2022-07-29T05:57:18;20.60;99.90
15288;DHT22;7745;48.708;9.026;2022-07-29T05:59:46;20.50;99.90
15288;DHT22;7745;48.708;9.026;2022-07-29T06:02:13;20.70;99.90
15288;DHT22;7745;48.708;9.026;2022-07-29T06:04:40;20.90;99.90
15288;DHT22;7745;48.708;9.026;2022-07-29T06:07:08;21.10;99.90
15288;DHT22;7745;48.708;9.026;2022-07-29T06:09:35;21.20;99.90
15288;DHT22;7745;48.708;9.026;2022-07-29T06:12:02;21.40;99.90
15288;DHT22;7745;48.708;9.026;2022-07-29T06:14:29;21.60;99.90
15288;DHT22;7745;48.708;9.026;2022-07-29T06:16:58;21.70;99.90
15288;DHT22;7745;48.708;9.026;2022-07-29T06:19:28;21.80;99.90
15288;DHT22;7745;48.708;9.026;2022-07-29T06:22:43;22.00;99.90
15288;DHT22;7745;48.708;9.026;2022-07-29T06:25:43;22.30;99.90
15288;DHT22;7745;48.708;9.026;2022-07-29T06:28:15;22.30;99.90
15288;DHT22;7745;48.708;9.026;2022-07-29T06:30:44;22.40;99.90
15288;DHT22;7745;48.708;9.026;2022-07-29T06:33:21;22.40;99.90
15288;DHT22;7745;48.708;9.026;2022-07-29T06:36:05;22.40;99.90
15288;DHT22;7745;48.708;9.026;2022-07-29T06:38:44;22.40;99.90
15288;DHT22;7745;48.708;9.026;2022-07-29T06:41:16;22.60;99.90
15288;DHT22;7745;48.708;9.026;2022-07-29T06:46:34;22.40;99.90
15288;DHT22;7745;48.708;9.026;2022-07-29T06:49:33;22.40;99.90
15288;DHT22;7745;48.708;9.026;2022-07-29T06:52:08;22.40;99.90
15288;DHT22;7745;48.708;9.026;2022-07-29T06:54:35;22.60;99.90
15288;DHT22;7745;48.708;9.026;2022-07-29T06:57:20;22.70;99.90
15288;DHT22;7745;48.708;9.026;2022-07-29T07:00:08;22.80;99.90
15288;DHT22;7745;48.708;9.026;2022-07-29T07:02:43;22.90;99.90
15288;DHT22;7745;48.708;9.026;2022-07-29T07:05:11;22.90;99.90
15288;DHT22;7745;48.708;9.026;2022-07-29T07:07:39;22.80;99.90
15288;DHT22;7745;48.708;9.026;2022-07-29T07:12:58;22.70;99.90
15288;DHT22;7745;48.708;9.026;2022-07-29T07:15:32;22.80;99.90
15288;DHT22;7745;48.708;9.026;2022-07-29T07:18:07;22.80;99.90
15288;DHT22;7745;48.708;9.026;2022-07-29T07:20:51;22.80;99.90
15288;DHT22;7745;48.708;9.026;2022-07-29T07:23:38;22.80;99.90
15288;DHT22;7745;48.708;9.026;2022-07-29T07:26:07;22.80;99.90
15288;DHT22;7745;48.708;9.026;2022-07-29T07:28:36;23.00;99.90
15288;DHT22;7745;48.708;9.026;2022-07-29T07:31:13;23.10;99.90
15288;DHT22;7745;48.708;9.026;2022-07-29T07:33:40;23.20;99.90
15288;DHT22;7745;48.708;9.026;2022-07-29T07:36:08;23.20;99.90
15288;DHT22;7745;48.708;9.026;2022-07-29T07:38:35;23.30;99.90
15288;DHT22;7745;48.708;9.026;2022-07-29T07:41:02;23.50;99.90
15288;DHT22;7745;48.708;9.026;2022-07-29T07:43:30;23.60;99.90
15288;DHT22;7745;48.708;9.026;2022-07-29T07:45:57;23.70;99.90
15288;DHT22;7745;48.708;9.026;2022-07-29T07:48:24;23.80;99.90
15288;DHT22;7745;48.708;9.026;2022-07-29T07:50:50;23.90;99.90
15288;DHT22;7745;48.708;9.026;2022-07-29T07:53:19;23.90;99.90
15288;DHT22;7745;48.708;9.026;2022-07-29T07:55:46;24.00;99.90
15288;DHT22;7745;48.708;9.026;2022-07-29T07:58:12;24.00;99.90
15288;DHT22;7745;48.708;9.026;2022-07-29T08:00:39;24.00;99.90
15288;DHT22;7745;48.708;9.026;2022-07-29T08:03:06;24.20;99.90
15288;DHT22;7745;48.708;9.026;2022-07-29T08:05:34;24.30;99.90
15288;DHT22;7745;48.708;9.026;2022-07-29T08:08:01;24.40;99.90
15288;DHT22;7745;48.708;9.026;2022-07-29T08:10:31;24.50;99.90
15288;DHT22;7745;48.708;9.026;2022-07-29T08:13:15;24.60;99.90
15288;DHT22;7745;48.708;9.026;2022-07-29T08:15:42;24.80;99.90
15288;DHT22;7745;48.708;9.026;2022-07-29T08:18:11;25.00;99.90
15288;DHT22;7745;48.708;9.026;2022-07-29T08:20:38;25.00;99.90
15288;DHT22;7745;48.708;9.026;2022-07-29T08:23:07;25.00;99.90
15288;DHT22;7745;48.708;9.026;2022-07-29T08:25:37;25.10;99.90
15288;DHT22;7745;48.708;9.026;2022-07-29T08:28:05;25.20;99.90
15288;DHT22;7745;48.708;9.026;2022-07-29T08:30:32;25.20;99.90
15288;DHT22;7745;48.708;9.026;2022-07-29T08:32:59;25.20;99.90
15288;DHT22;7745;48.708;9.026;2022-07-29T08:35:26;25.20;99.90
15288;DHT22;7745;48.708;9.026;2022-07-29T08:37:54;25.20;99.90
15288;DHT22;7745;48.708;9.026;2022-07-29T08:40:22;25.20;99.90
15288;DHT22;7745;48.708;9.026;2022-07-29T08:42:51;25.20;99.90
15288;DHT22;7745;48.708;9.026;2022-07-29T08:45:18;25.30;99.90
15288;DHT22;7745;48.708;9.026;2022-07-29T08:47:45;25.40;99.90
15288;DHT22;7745;48.708;9.026;2022-07-29T08:50:15;25.50;99.90
15288;DHT22;7745;48.708;9.026;2022-07-29T08:52:42;25.50;99.90
15288;DHT22;7745;48.708;9.026;2022-07-29T08:55:10;25.60;99.90
15288;DHT22;7745;48.708;9.026;2022-07-29T08:57:39;25.70;99.90
15288;DHT22;7745;48.708;9.026;2022-07-29T09:00:08;25.80;99.90
15288;DHT22;7745;48.708;9.026;2022-07-29T09:02:39;25.70;99.90
15288;DHT22;7745;48.708;9.026;2022-07-29T09:05:07;25.70;99.90
15288;DHT22;7745;48.708;9.026;2022-07-29T09:08:12;25.80;99.90
15288;DHT22;7745;48.708;9.026;2022-07-29T09:10:44;26.00;99.90
15288;DHT22;7745;48.708;9.026;2022-07-29T09:13:24;26.00;99.90
15288;DHT22;7745;48.708;9.026;2022-07-29T09:15:54;26.10;99.90
15288;DHT22;7745;48.708;9.026;2022-07-29T09:18:42;26.20;99.90
15288;DHT22;7745;48.708;9.026;2022-07-29T09:21:10;26.30;99.90
15288;DHT22;7745;48.708;9.026;2022-07-29T09:24:07;26.40;99.90
15288;DHT22;7745;48.708;9.026;2022-07-29T09:26:35;26.40;99.90
15288;DHT22;7745;48.708;9.026;2022-07-29T09:29:08;26.40;99.90
15288;DHT22;7745;48.708;9.026;2022-07-29T09:31:40;26.40;99.90
15288;DHT22;7745;48.708;9.026;2022-07-29T09:34:07;26.40;99.90
15288;DHT22;7745;48.708;9.026;2022-07-29T09:36:43;26.40;99.90
15288;DHT22;7745;48.708;9.026;2022-07-29T09:39:10;26.40;99.90
15288;DHT22;7745;48.708;9.026;2022-07-29T09:41:45;26.40;99.90
15288;DHT22;7745;48.708;9.026;2022-07-29T09:44:12;26.50;99.90
15288;DHT22;7745;48.708;9.026;2022-07-29T09:47:01;26.70;99.90
15288;DHT22;7745;48.708;9.026;2022-07-29T09:49:31;27.00;99.90
15288;DHT22;7745;48.708;9.026;2022-07-29T09:52:04;27.40;99.90
15288;DHT22;7745;48.708;9.026;2022-07-29T09:57:48;27.30;99.90
15288;DHT22;7745;48.708;9.026;2022-07-29T10:00:17;27.30;99.90
15288;DHT22;7745;48.708;9.026;2022-07-29T10:02:46;27.40;99.90
15288;DHT22;7745;48.708;9.026;2022-07-29T10:05:18;27.50;99.90
15288;DHT22;7745;48.708;9.026;2022-07-29T10:07:47;27.40;99.90
15288;DHT22;7745;48.708;9.026;2022-07-29T10:10:20;27.40;99.90
15288;DHT22;7745;48.708;9.026;2022-07-29T10:12:55;27.40;99.90
15288;DHT22;7745;48.708;9.026;2022-07-29T10:15:23;27.30;99.90
15288;DHT22;7745;48.708;9.026;2022-07-29T10:17:53;27.10;99.90
15288;DHT22;7745;48.708;9.026;2022-07-29T10:20:20;26.80;99.90
15288;DHT22;7745;48.708;9.026;2022-07-29T10:22:48;26.60;99.90
15288;DHT22;7745;48.708;9.026;2022-07-29T10:25:15;26.30;99.90
15288;DHT22;7745;48.708;9.026;2022-07-29T10:27:43;26.00;99.90
15288;DHT22;7745;48.708;9.026;2022-07-29T10:30:11;25.80;99.90
15288;DHT22;7745;48.708;9.026;2022-07-29T10:32:57;25.60;99.90
15288;DHT22;7745;48.708;9.026;2022-07-29T10:35:38;25.30;99.90
15288;DHT22;7745;48.708;9.026;2022-07-29T10:38:30;25.20;99.90
15288;DHT22;7745;48.708;9.026;2022-07-29T10:41:11;24.80;99.90
15288;DHT22;7745;48.708;9.026;2022-07-29T10:43:58;24.30;99.90
15288;DHT22;7745;48.708;9.026;2022-07-29T10:46:27;23.90;99.90
15288;DHT22;7745;48.708;9.026;2022-07-29T10:49:09;23.20;99.90
15288;DHT22;7745;48.708;9.026;2022-07-29T10:51:59;22.30;99.90
15288;DHT22;7745;48.708;9.026;2022-07-29T10:54:41;21.50;99.90
15288;DHT22;7745;48.708;9.026;2022-07-29T10:57:13;20.90;99.90
15288;DHT22;7745;48.708;9.026;2022-07-29T10:59:40;20.60;99.90
15288;DHT22;7745;48.708;9.026;2022-07-29T11:05:14;20.40;99.90
15288;DHT22;7745;48.708;9.026;2022-07-29T11:10:43;20.30;99.90
15288;DHT22;7745;48.708;9.026;2022-07-29T11:13:10;20.40;99.90
15288;DHT22;7745;48.708;9.026;2022-07-29T11:15:52;20.40;99.90
15288;DHT22;7745;48.708;9.026;2022-07-29T11:18:20;20.50;99.90
15288;DHT22;7745;48.708;9.026;2022-07-29T11:20:49;20.60;99.90
15288;DHT22;7745;48.708;9.026;2022-07-29T11:23:24;20.70;99.90
15288;DHT22;7745;48.708;9.026;2022-07-29T11:26:13;20.80;99.90
15288;DHT22;7745;48.708;9.026;2022-07-29T11:28:50;20.90;99.90
15288;DHT22;7745;48.708;9.026;2022-07-29T11:31:31;20.90;99.90
15288;DHT22;7745;48.708;9.026;2022-07-29T11:34:19;21.00;99.90
15288;DHT22;7745;48.708;9.026;2022-07-29T11:37:19;21.00;99.90
15288;DHT22;7745;48.708;9.026;2022-07-29T11:42:41;21.20;99.90
15288;DHT22;7745;48.708;9.026;2022-07-29T11:45:11;21.20;99.90
15288;DHT22;7745;48.708;9.026;2022-07-29T11:47:40;21.20;99.90
15288;DHT22;7745;48.708;9.026;2022-07-29T11:50:08;21.30;99.90
15288;DHT22;7745;48.708;9.026;2022-07-29T11:52:38;21.30;99.90
15288;DHT22;7745;48.708;9.026;2022-07-29T11:55:12;21.30;99.90
15288;DHT22;7745;48.708;9.026;2022-07-29T11:57:46;21.30;99.90
15288;DHT22;7745;48.708;9.026;2022-07-29T12:00:21;21.30;99.90
15288;DHT22;7745;48.708;9.026;2022-07-29T12:02:48;21.30;99.90
15288;DHT22;7745;48.708;9.026;2022-07-29T12:05:16;21.40;99.90
15288;DHT22;7745;48.708;9.026;2022-07-29T12:07:45;21.30;99.90
15288;DHT22;7745;48.708;9.026;2022-07-29T12:10:11;21.30;99.90
15288;DHT22;7745;48.708;9.026;2022-07-29T12:12:38;21.30;99.90
15288;DHT22;7745;48.708;9.026;2022-07-29T12:15:16;21.10;99.90
15288;DHT22;7745;48.708;9.026;2022-07-29T12:17:46;21.20;99.90
15288;DHT22;7745;48.708;9.026;2022-07-29T12:20:13;21.20;99.90
15288;DHT22;7745;48.708;9.026;2022-07-29T12:22:43;21.20;99.90
15288;DHT22;7745;48.708;9.026;2022-07-29T12:25:13;21.10;99.90
15288;DHT22;7745;48.708;9.026;2022-07-29T12:27:42;21.10;99.90
15288;DHT22;7745;48.708;9.026;2022-07-29T12:30:11;21.10;99.90
15288;DHT22;7745;48.708;9.026;2022-07-29T12:32:42;21.00;99.90
15288;DHT22;7745;48.708;9.026;2022-07-29T12:35:10;20.90;99.90
15288;DHT22;7745;48.708;9.026;2022-07-29T12:37:40;21.00;99.90
15288;DHT22;7745;48.708;9.026;2022-07-29T12:40:08;21.00;99.90
15288;DHT22;7745;48.708;9.026;2022-07-29T12:42:37;21.00;99.90
15288;DHT22;7745;48.708;9.026;2022-07-29T12:45:05;21.00;99.90
15288;DHT22;7745;48.708;9.026;2022-07-29T12:47:32;20.90;99.90
15288;DHT22;7745;48.708;9.026;2022-07-29T12:50:09;20.80;99.90
15288;DHT22;7745;48.708;9.026;2022-07-29T12:52:36;20.80;99.90
15288;DHT22;7745;48.708;9.026;2022-07-29T12:55:04;20.80;99.90
15288;DHT22;7745;48.708;9.026;2022-07-29T12:57:32;20.80;99.90
15288;DHT22;7745;48.708;9.026;2022-07-29T13:00:13;20.80;99.90
15288;DHT22;7745;48.708;9.026;2022-07-29T13:02:41;20.80;99.90
15288;DHT22;7745;48.708;9.026;2022-07-29T13:05:10;20.70;99.90
15288;DHT22;7745;48.708;9.026;2022-07-29T13:07:38;20.80;99.90
15288;DHT22;7745;48.708;9.026;2022-07-29T13:10:13;20.80;99.90
15288;DHT22;7745;48.708;9.026;2022-07-29T13:13:02;20.60;99.90
15288;DHT22;7745;48.708;9.026;2022-07-29T13:15:31;20.60;99.90
15288;DHT22;7745;48.708;9.026;2022-07-29T13:17:58;20.60;99.90
15288;DHT22;7745;48.708;9.026;2022-07-29T13:20:27;20.50;99.90
15288;DHT22;7745;48.708;9.026;2022-07-29T13:22:55;20.50;99.90
15288;DHT22;7745;48.708;9.026;2022-07-29T13:25:26;20.50;99.90
15288;DHT22;7745;48.708;9.026;2022-07-29T13:27:54;20.40;99.90
15288;DHT22;7745;48.708;9.026;2022-07-29T13:30:22;20.40;99.90
15288;DHT22;7745;48.708;9.026;2022-07-29T13:32:51;20.40;99.90
15288;DHT22;7745;48.708;9.026;2022-07-29T13:35:19;20.50;99.90
15288;DHT22;7745;48.708;9.026;2022-07-29T13:37:46;20.50;99.90
15288;DHT22;7745;48.708;9.026;2022-07-29T13:40:14;20.50;99.90
15288;DHT22;7745;48.708;9.026;2022-07-29T13:42:41;20.60;99.90
15288;DHT22;7745;48.708;9.026;2022-07-29T13:45:09;20.80;99.90
15288;DHT22;7745;48.708;9.026;2022-07-29T13:47:37;20.90;99.90
15288;DHT22;7745;48.708;9.026;2022-07-29T13:50:07;20.90;99.90
15288;DHT22;7745;48.708;9.026;2022-07-29T13:52:35;21.00;99.90
15288;DHT22;7745;48.708;9.026;2022-07-29T13:55:04;21.20;99.90
15288;DHT22;7745;48.708;9.026;2022-07-29T13:57:31;21.40;99.90
15288;DHT22;7745;48.708;9.026;2022-07-29T13:59:58;21.50;99.90
15288;DHT22;7745;48.708;9.026;2022-07-29T14:02:25;21.50;99.90
15288;DHT22;7745;48.708;9.026;2022-07-29T14:04:52;21.80;99.90
15288;DHT22;7745;48.708;9.026;2022-07-29T14:07:21;21.80;99.90
15288;DHT22;7745;48.708;9.026;2022-07-29T14:09:48;22.00;99.90
15288;DHT22;7745;48.708;9.026;2022-07-29T14:12:15;22.20;99.90
15288;DHT22;7745;48.708;9.026;2022-07-29T14:14:42;22.20;99.90
15288;DHT22;7745;48.708;9.026;2022-07-29T14:17:09;22.30;99.90
15288;DHT22;7745;48.708;9.026;2022-07-29T14:19:36;22.30;99.90
15288;DHT22;7745;48.708;9.026;2022-07-29T14:22:03;22.40;99.90
15288;DHT22;7745;48.708;9.026;2022-07-29T14:24:32;22.40;99.90
15288;DHT22;7745;48.708;9.026;2022-07-29T14:26:59;22.50;99.90
15288;DHT22;7745;48.708;9.026;2022-07-29T14:29:26;22.60;99.90
15288;DHT22;7745;48.708;9.026;2022-07-29T14:31:53;22.60;99.90
15288;DHT22;7745;48.708;9.026;2022-07-29T14:34:19;22.70;99.90
15288;DHT22;7745;48.708;9.026;2022-07-29T14:36:46;22.80;99.90
15288;DHT22;7745;48.708;9.026;2022-07-29T14:39:13;22.80;99.90
15288;DHT22;7745;48.708;9.026;2022-07-29T14:41:43;22.90;99.90
15288;DHT22;7745;48.708;9.026;2022-07-29T14:44:09;23.00;99.90
15288;DHT22;7745;48.708;9.026;2022-07-29T14:46:36;23.00;99.90
15288;DHT22;7745;48.708;9.026;2022-07-29T14:49:03;23.10;99.90
15288;DHT22;7745;48.708;9.026;2022-07-29T14:51:33;23.10;99.90
15288;DHT22;7745;48.708;9.026;2022-07-29T14:54:00;23.10;99.90
15288;DHT22;7745;48.708;9.026;2022-07-29T14:56:27;23.20;99.90
15288;DHT22;7745;48.708;9.026;2022-07-29T14:58:57;23.20;99.90
15288;DHT22;7745;48.708;9.026;2022-07-29T15:01:24;23.20;99.90
15288;DHT22;7745;48.708;9.026;2022-07-29T15:03:51;23.30;99.90
15288;DHT22;7745;48.708;9.026;2022-07-29T15:06:18;23.30;99.90
15288;DHT22;7745;48.708;9.026;2022-07-29T15:08:44;23.30;99.90
15288;DHT22;7745;48.708;9.026;2022-07-29T15:11:11;23.40;99.90
15288;DHT22;7745;48.708;9.026;2022-07-29T15:13:38;23.40;99.90
15288;DHT22;7745;48.708;9.026;2022-07-29T15:16:07;23.40;99.90
15288;DHT22;7745;48.708;9.026;2022-07-29T15:18:34;23.40;99.90
15288;DHT22;7745;48.708;9.026;2022-07-29T15:21:03;23.40;99.90
15288;DHT22;7745;48.708;9.026;2022-07-29T15:23:32;23.30;99.90
15288;DHT22;7745;48.708;9.026;2022-07-29T15:26:00;23.30;99.90
15288;DHT22;7745;48.708;9.026;2022-07-29T15:28:27;23.40;99.90
15288;DHT22;7745;48.708;9.026;2022-07-29T15:30:54;23.40;99.90
15288;DHT22;7745;48.708;9.026;2022-07-29T15:33:22;23.40;99.90
15288;DHT22;7745;48.708;9.026;2022-07-29T15:35:49;23.40;99.90
15288;DHT22;7745;48.708;9.026;2022-07-29T15:38:16;23.40;99.90
15288;DHT22;7745;48.708;9.026;2022-07-29T15:40:43;23.30;99.90
15288;DHT22;7745;48.708;9.026;2022-07-29T15:43:11;23.30;99.90
15288;DHT22;7745;48.708;9.026;2022-07-29T15:45:40;23.20;99.90
15288;DHT22;7745;48.708;9.026;2022-07-29T15:48:08;23.20;99.90
15288;DHT22;7745;48.708;9.026;2022-07-29T15:50:37;23.10;99.90
15288;DHT22;7745;48.708;9.026;2022-07-29T15:53:04;23.10;99.90
15288;DHT22;7745;48.708;9.026;2022-07-29T15:55:31;23.00;99.90
15288;DHT22;7745;48.708;9.026;2022-07-29T15:57:58;23.00;99.90
15288;DHT22;7745;48.708;9.026;2022-07-29T16:00:25;23.00;99.90
15288;DHT22;7745;48.708;9.026;2022-07-29T16:02:51;23.00;99.90
15288;DHT22;7745;48.708;9.026;2022-07-29T16:05:18;23.10;99.90
15288;DHT22;7745;48.708;9.026;2022-07-29T16:07:46;23.10;99.90
15288;DHT22;7745;48.708;9.026;2022-07-29T16:10:13;23.10;99.90
15288;DHT22;7745;48.708;9.026;2022-07-29T16:12:40;23.10;99.90
15288;DHT22;7745;48.708;9.026;2022-07-29T16:15:07;23.20;99.90
15288;DHT22;7745;48.708;9.026;2022-07-29T16:17:35;23.10;99.90
15288;DHT22;7745;48.708;9.026;2022-07-29T16:20:03;23.10;99.90
15288;DHT22;7745;48.708;9.026;2022-07-29T16:22:30;23.10;99.90
15288;DHT22;7745;48.708;9.026;2022-07-29T16:24:58;23.20;99.90